Time;durP1;ratioP1;P1;durP2;ratioP2;P2;SDS_P1;SDS_P2;PMS_P1;PMS_P2;Temp;Humidity;BMP_temperature;BMP_pressure;BME280_temperature;BME280_humidity;BME280_pressure;Samples;Min_cycle;Max_cycle;Signal;HPM_P1;HPM_P2
2021/12/12 00:00:40;;;;;;;17.35;7.87;;;;;;;2.58;66.77;99854.69;4353657;32;33275;-92
2021/12/12 00:03:42;;;;;;;15.57;8.30;;;;;;;2.89;65.46;99862.16;4386257;32;32948;-91
2021/12/12 00:06:29;;;;;;;19.58;8.90;;;;;;;2.90;65.34;99869.16;4343863;33;32851;-91
2021/12/12 00:09:35;;;;;;;18.00;7.97;;;;;;;2.93;65.13;99874.31;4361887;32;34003;-91
2021/12/12 00:12:22;;;;;;;18.10;9.27;;;;;;;3.25;63.73;99868.69;4370375;32;32604;-91
2021/12/12 00:15:15;;;;;;;17.52;6.85;;;;;;;3.07;64.35;99875.00;4349512;32;32563;-91
2021/12/12 00:17:55;;;;;;;17.48;8.98;;;;;;;3.17;64.14;99876.63;4391040;32;33799;-92
2021/12/12 00:20:51;;;;;;;21.80;8.25;;;;;;;2.95;64.71;99885.59;4346187;32;34247;-92
2021/12/12 00:23:31;;;;;;;14.73;7.90;;;;;;;3.00;64.83;99892.47;4377596;32;33326;-93
2021/12/12 00:26:23;;;;;;;;;;;;;;;2.70;65.71;99891.06;4375358;32;32538;-92
2021/12/12 00:29:09;;;;;;;15.25;8.02;;;;;;;3.02;64.78;99900.28;4380451;32;32947;-92
2021/12/12 00:32:04;;;;;;;18.58;8.45;;;;;;;2.90;64.73;99887.41;4357941;32;33107;-91
2021/12/12 00:34:51;;;;;;;21.48;9.93;;;;;;;3.04;64.05;99882.88;4349517;32;32995;-91
2021/12/12 00:37:45;;;;;;;16.80;8.55;;;;;;;3.01;64.47;99886.37;4414063;32;32757;-92
2021/12/12 00:40:32;;;;;;;22.80;9.18;;;;;;;2.34;66.44;99892.28;4346138;32;32522;-93
2021/12/12 00:43:28;;;;;;;15.48;7.78;;;;;;;2.75;65.77;99886.69;4350770;32;32522;-93
2021/12/12 00:46:10;;;;;;;20.00;8.98;;;;;;;2.92;64.76;99875.19;4374489;32;32190;-92
2021/12/12 00:49:01;;;;;;;20.35;8.18;;;;;;;2.84;65.04;99883.09;4344680;33;33742;-92
2021/12/12 00:51:42;;;;;;;16.20;8.00;;;;;;;2.78;65.46;99877.94;4349621;32;33804;-94
2021/12/12 00:54:34;;;;;;;18.35;9.25;;;;;;;2.73;65.13;99883.22;4326087;33;32653;-93
2021/12/12 00:57:16;;;;;;;17.85;9.57;;;;;;;2.61;65.54;99880.75;4347564;32;33136;-93
2021/12/12 01:00:12;;;;;;;21.02;10.45;;;;;;;2.80;65.29;99892.72;4356824;32;34396;-93
2021/12/12 01:02:53;;;;;;;24.15;11.20;;;;;;;2.60;65.37;99889.44;4365853;32;33653;-92
2021/12/12 01:05:46;;;;;;;22.87;10.85;;;;;;;2.22;66.49;99888.03;4336446;33;33099;-93
2021/12/12 01:08:27;;;;;;;21.05;9.98;;;;;;;2.63;65.18;99892.00;4375633;32;32791;-92
2021/12/12 01:11:42;;;;;;;21.35;9.35;;;;;;;2.55;65.68;99899.03;4364927;32;33369;-93
2021/12/12 01:14:25;;;;;;;19.60;9.80;;;;;;;2.24;66.56;99901.06;4374706;32;32688;-93
2021/12/12 01:17:26;;;;;;;17.20;9.63;;;;;;;2.30;66.81;99895.78;4361706;32;32677;-93
2021/12/12 01:20:30;;;;;;;20.37;9.63;;;;;;;2.14;67.15;99905.50;4341120;32;32591;-93
2021/12/12 01:23:34;;;;;;;19.17;9.88;;;;;;;2.49;65.72;99899.97;4378531;32;32738;-92
2021/12/12 01:27:07;;;;;;;18.67;9.15;;;;;;;2.56;65.12;99895.53;4353165;32;33315;-92
2021/12/12 01:34:58;;;;;;;17.70;9.40;;;;;;;2.60;64.93;99899.84;4361563;32;34351;-91
2021/12/12 01:40:57;;;;;;;19.08;10.07;;;;;;;2.23;66.44;99900.22;4337856;32;33489;-95
2021/12/12 01:43:49;;;;;;;20.40;10.02;;;;;;;2.35;65.77;99903.56;4392113;32;32569;-94
2021/12/12 01:46:36;;;;;;;20.12;10.00;;;;;;;2.29;66.04;99905.34;4390617;32;32257;-91
2021/12/12 01:49:38;;;;;;;26.10;12.07;;;;;;;2.23;66.44;99905.41;4342733;33;33879;-91
2021/12/12 01:52:16;;;;;;;23.48;11.25;;;;;;;2.42;65.32;99902.63;4324126;33;33974;-89
2021/12/12 01:55:23;;;;;;;21.77;11.20;;;;;;;2.37;65.42;99913.09;4360094;32;34041;-91
2021/12/12 01:58:08;;;;;;;30.25;10.27;;;;;;;2.27;65.49;99911.44;4383018;32;33613;-93
2021/12/12 02:01:04;;;;;;;26.60;10.95;;;;;;;2.31;65.93;99919.22;4355657;32;33111;-92
2021/12/12 02:04:01;;;;;;;21.40;10.40;;;;;;;2.21;66.31;99917.56;4359661;32;33153;-91
2021/12/12 02:06:30;;;;;;;20.70;9.43;;;;;;;2.19;66.37;99919.34;4337507;32;32792;-91
2021/12/12 02:08:59;;;;;;;23.77;11.38;;;;;;;2.23;65.98;99926.25;4337445;32;32328;-91
2021/12/12 02:11:33;;;;;;;22.42;10.27;;;;;;;2.44;65.34;99919.13;4336937;32;32849;-91
2021/12/12 02:14:22;;;;;;;23.98;10.48;;;;;;;2.14;65.91;99909.84;4339506;32;33031;-91
2021/12/12 02:16:57;;;;;;;25.42;10.70;;;;;;;2.47;65.08;99917.37;4342282;32;32582;-91
2021/12/12 02:20:41;;;;;;;22.05;9.45;;;;;;;2.17;66.23;99915.88;4326888;33;32394;-90
2021/12/12 02:23:40;;;;;;;28.62;11.63;;;;;;;2.28;65.48;99898.44;4324869;33;34491;-90
2021/12/12 02:38:47;;;;;;;14.95;9.32;;;;;;;1.84;67.33;99897.88;4365711;32;33063;-90
2021/12/12 02:41:27;;;;;;;22.05;10.75;;;;;;;2.31;65.25;99903.59;4378990;32;33156;-92
2021/12/12 02:44:08;;;;;;;21.02;9.88;;;;;;;2.28;65.86;99902.78;4375160;32;33154;-92
2021/12/12 02:46:50;;;;;;;23.48;9.27;;;;;;;2.26;65.77;99902.75;4384227;32;32895;-91
2021/12/12 02:52:52;;;;;;;19.50;10.68;;;;;;;2.29;65.50;99900.16;4357751;32;32780;-92
2021/12/12 02:55:48;;;;;;;21.27;9.53;;;;;;;2.44;65.02;99903.50;4391220;32;32538;-92
2021/12/12 02:58:28;;;;;;;22.77;10.65;;;;;;;2.62;64.33;99916.34;4381525;32;32368;-93
2021/12/12 03:01:28;;;;;;;20.20;9.90;;;;;;;2.01;65.97;99904.72;4341347;32;33528;-95
2021/12/12 03:04:08;;;;;;;24.75;10.80;;;;;;;2.46;64.98;99912.16;4343368;33;32265;-95
2021/12/12 03:07:03;;;;;;;19.20;9.57;;;;;;;2.67;64.14;99916.31;4356137;32;32225;-94
2021/12/12 03:09:52;;;;;;;18.90;9.55;;;;;;;2.18;65.84;99916.72;4367438;32;33299;-94
2021/12/12 03:12:43;;;;;;;17.12;8.98;;;;;;;2.51;64.94;99916.44;4386398;32;33447;-90
2021/12/12 03:15:29;;;;;;;20.83;9.95;;;;;;;2.26;65.45;99910.59;4370836;32;32750;-94
2021/12/12 03:18:39;;;;;;;20.75;9.43;;;;;;;2.21;65.48;99911.50;4339753;32;32576;-93
2021/12/12 03:21:30;;;;;;;23.30;9.85;;;;;;;2.58;64.27;99911.19;4357955;32;32918;-95
2021/12/12 03:24:24;;;;;;;24.35;9.93;;;;;;;1.98;66.39;99919.47;4373131;32;32786;-92
2021/12/12 03:27:04;;;;;;;22.15;8.65;;;;;;;1.77;66.51;99923.97;4408839;32;33406;-94
2021/12/12 03:29:56;;;;;;;22.08;9.25;;;;;;;1.94;66.20;99918.63;4361225;32;32455;-93
2021/12/12 03:32:47;;;;;;;24.50;10.02;;;;;;;2.16;65.47;99929.78;4364871;32;33553;-93
2021/12/12 03:35:29;;;;;;;19.87;9.88;;;;;;;1.98;66.08;99929.91;4367191;32;33777;-94
2021/12/12 03:38:24;;;;;;;20.17;9.25;;;;;;;1.77;66.47;99941.31;4318433;33;33658;-92
2021/12/12 03:41:08;;;;;;;24.45;9.75;;;;;;;2.18;64.79;99933.22;4359703;32;32769;-92
2021/12/12 03:44:04;;;;;;;23.55;11.15;;;;;;;1.95;65.73;99936.00;4353436;32;32351;-92
2021/12/12 03:46:46;;;;;;;23.67;10.48;;;;;;;1.82;66.08;99944.75;4369367;32;33489;-92
2021/12/12 03:49:41;;;;;;;22.73;10.43;;;;;;;2.29;64.42;99940.97;4355425;32;34372;-93
2021/12/12 03:52:21;;;;;;;20.62;9.38;;;;;;;2.60;63.12;99941.56;4378048;32;31992;-92
2021/12/12 03:55:13;;;;;;;;;;;;;;;2.48;63.54;99950.38;4348422;32;33647;-90
2021/12/12 03:57:54;;;;;;;21.20;9.50;;;;;;;2.05;64.22;99957.66;4388122;32;33607;-94
2021/12/12 04:00:49;;;;;;;24.67;10.30;;;;;;;2.03;65.31;99961.97;4370451;32;33601;-92
2021/12/12 04:03:43;;;;;;;26.40;10.82;;;;;;;2.34;63.54;99969.59;4369240;32;32205;-92
2021/12/12 04:06:25;;;;;;;25.90;10.88;;;;;;;2.19;64.03;99970.59;4360063;32;32729;-91
2021/12/12 04:09:18;;;;;;;22.13;10.55;;;;;;;1.97;64.34;99980.25;4355834;32;33092;-91
2021/12/12 04:12:01;;;;;;;23.40;9.63;;;;;;;2.45;63.60;99975.59;4333859;33;33142;-90
2021/12/12 04:14:55;;;;;;;21.40;10.13;;;;;;;2.34;63.35;99982.62;4401400;32;34160;-91
2021/12/12 04:17:34;;;;;;;21.77;10.75;;;;;;;2.38;63.14;99981.75;4376565;32;32907;-91
2021/12/12 04:20:34;;;;;;;25.45;10.15;;;;;;;2.74;61.80;99986.63;4385308;32;33243;-91
2021/12/12 04:23:19;;;;;;;22.67;10.35;;;;;;;2.72;61.51;99993.59;4391761;32;32925;-92
2021/12/12 04:26:20;;;;;;;23.58;10.77;;;;;;;2.57;61.71;99993.75;4377435;32;32750;-92
2021/12/12 04:29:01;;;;;;;25.73;10.95;;;;;;;2.12;63.67;100001.00;4385396;32;33047;-94
2021/12/12 04:31:59;;;;;;;23.58;10.50;;;;;;;2.34;62.13;100000.88;4364967;32;32903;-92
2021/12/12 04:34:42;;;;;;;19.85;10.90;;;;;;;2.30;62.52;100015.66;4384800;32;32744;-92
2021/12/12 04:37:35;;;;;;;28.38;10.55;;;;;;;2.07;63.80;100007.97;4370673;32;32043;-94
2021/12/12 04:40:19;;;;;;;25.17;11.23;;;;;;;2.00;63.56;100006.31;4359207;32;32877;-94
2021/12/12 04:43:11;;;;;;;29.08;12.57;;;;;;;2.06;63.39;100011.47;4374030;32;32676;-94
2021/12/12 04:46:03;;;;;;;24.92;11.93;;;;;;;2.29;62.46;100012.19;4353614;32;33741;-94
2021/12/12 04:51:58;;;;;;;25.05;11.05;;;;;;;2.21;62.74;100015.72;4419153;32;33053;-93
2021/12/12 04:54:54;;;;;;;28.92;12.25;;;;;;;2.02;63.90;100010.59;4315105;33;32507;-94
2021/12/12 04:57:41;;;;;;;28.67;12.02;;;;;;;2.29;62.56;100012.19;4386376;32;32700;-94
2021/12/12 05:00:44;;;;;;;26.62;12.07;;;;;;;2.16;63.41;100017.47;4379876;32;32224;-94
2021/12/12 05:03:45;;;;;;;29.02;12.63;;;;;;;2.00;63.46;100011.50;4349695;32;32799;-93
2021/12/12 05:06:43;;;;;;;29.42;14.30;;;;;;;2.41;62.54;100018.19;4360075;32;32975;-93
2021/12/12 05:09:53;;;;;;;27.35;12.20;;;;;;;2.55;61.61;100016.34;4401119;32;33409;-92
2021/12/12 05:12:58;;;;;;;32.30;13.52;;;;;;;2.01;63.65;100013.22;4362424;32;33676;-92
2021/12/12 05:15:45;;;;;;;24.85;12.23;;;;;;;2.28;62.97;100010.47;4366587;32;32661;-92
2021/12/12 05:18:48;;;;;;;29.92;12.48;;;;;;;1.90;63.71;100013.31;4350405;32;32722;-91
2021/12/12 05:21:33;;;;;;;28.15;12.37;;;;;;;2.28;62.77;100014.81;4374735;32;33252;-91
2021/12/12 05:24:26;;;;;;;26.02;13.27;;;;;;;1.97;63.40;100025.41;4373135;32;33235;-92
2021/12/12 05:27:10;;;;;;;32.25;14.30;;;;;;;2.19;62.92;100023.53;4370620;32;33201;-92
2021/12/12 05:30:10;;;;;;;26.52;12.45;;;;;;;2.34;62.36;100019.13;4373784;32;33236;-94
2021/12/12 05:32:51;;;;;;;30.95;11.93;;;;;;;2.21;62.03;100016.56;4376911;32;33459;-93
2021/12/12 05:35:42;;;;;;;28.17;12.35;;;;;;;2.37;62.24;100022.53;4370846;32;33960;-91
2021/12/12 05:38:23;;;;;;;24.02;11.70;;;;;;;2.25;62.31;100027.84;4399833;32;33026;-92
2021/12/12 05:41:18;;;;;;;26.15;11.30;;;;;;;2.67;61.07;100018.00;4380601;32;32990;-92
2021/12/12 05:43:58;;;;;;;29.23;12.50;;;;;;;2.97;59.69;100022.94;4377370;32;33852;-92
2021/12/12 05:46:55;;;;;;;19.20;9.70;;;;;;;2.66;60.59;100031.88;4389075;32;32235;-91
2021/12/12 05:49:36;;;;;;;24.05;11.12;;;;;;;2.51;61.16;100025.91;4370838;32;33217;-92
2021/12/12 05:52:28;;;;;;;25.08;11.38;;;;;;;2.83;60.24;100025.66;4409201;32;33257;-90
2021/12/12 05:55:08;;;;;;;26.00;12.10;;;;;;;2.55;61.00;100027.63;4374253;32;33010;-92
2021/12/12 05:58:01;;;;;;;20.58;11.07;;;;;;;2.93;60.19;100022.97;4384198;32;31922;-92
2021/12/12 06:00:53;;;;;;;24.87;10.75;;;;;;;2.60;60.96;100024.97;4392189;32;32932;-90
2021/12/12 06:03:45;;;;;;;19.25;9.93;;;;;;;2.62;60.95;100028.47;4387151;32;32396;-91
2021/12/12 06:06:30;;;;;;;25.77;10.48;;;;;;;2.21;61.99;100037.41;4391329;32;33948;-92
2021/12/12 06:09:22;;;;;;;24.02;10.35;;;;;;;2.31;61.37;100044.28;4366634;32;32904;-92
2021/12/12 06:12:04;;;;;;;18.05;8.93;;;;;;;2.65;60.79;100033.63;4416412;32;33597;-92
2021/12/12 06:14:54;;;;;;;;;;;;;;;2.54;61.12;100035.47;4409939;32;32351;-92
2021/12/12 06:17:34;;;;;;;18.27;9.25;;;;;;;2.48;61.25;100045.94;4390838;32;34326;-92
2021/12/12 06:20:28;;;;;;;16.75;8.57;;;;;;;2.54;60.60;100045.88;4395764;32;32265;-92
2021/12/12 06:23:09;;;;;;;17.27;9.15;;;;;;;2.50;60.63;100054.59;4384419;32;33066;-91
2021/12/12 06:26:01;;;;;;;21.73;9.10;;;;;;;2.11;61.70;100067.00;4367607;32;32960;-91
2021/12/12 06:28:41;;;;;;;16.90;8.45;;;;;;;2.11;62.52;100061.78;4398800;32;32640;-94
2021/12/12 06:31:36;;;;;;;16.80;9.00;;;;;;;2.10;62.46;100073.09;4368239;32;32122;-92
2021/12/12 06:34:16;;;;;;;17.48;8.43;;;;;;;2.42;61.19;100057.28;4372210;32;33002;-94
2021/12/12 06:37:07;;;;;;;15.57;8.07;;;;;;;1.86;62.83;100065.41;4367245;32;32124;-94
2021/12/12 06:39:47;;;;;;;17.17;8.80;;;;;;;2.54;61.18;100061.53;4383170;32;33801;-93
2021/12/12 06:42:39;;;;;;;16.52;8.38;;;;;;;2.41;61.81;100065.09;4379854;32;32187;-93
2021/12/12 06:45:19;;;;;;;15.35;7.43;;;;;;;2.22;62.29;100070.41;4394245;32;33180;-93
2021/12/12 06:48:12;;;;;;;18.25;7.82;;;;;;;2.37;61.31;100069.44;4377931;32;33028;-93
2021/12/12 06:50:55;;;;;;;16.27;7.80;;;;;;;2.20;62.17;100077.37;4391177;32;32414;-94
2021/12/12 06:53:47;;;;;;;16.08;7.37;;;;;;;1.92;62.70;100066.22;4374114;32;32019;-91
2021/12/12 06:56:27;;;;;;;16.25;7.50;;;;;;;2.31;62.04;100069.50;4369005;32;32327;-94
2021/12/12 06:59:22;;;;;;;16.00;7.53;;;;;;;2.21;61.43;100065.22;4380138;32;32862;-95
2021/12/12 07:02:02;;;;;;;16.62;7.78;;;;;;;2.41;60.67;100070.28;4367261;32;32306;-94
2021/12/12 07:04:55;;;;;;;15.82;7.22;;;;;;;1.90;62.36;100077.50;4394158;32;32124;-93
2021/12/12 07:07:35;;;;;;;14.25;6.07;;;;;;;1.74;63.47;100082.78;4364923;32;33660;-92
2021/12/12 07:10:20;;;;;;;14.20;6.65;;;;;;;1.58;63.64;100072.44;4391559;32;33429;-90
2021/12/12 07:12:54;;;;;;;15.88;6.85;;;;;;;1.87;63.23;100073.19;4367497;32;33034;-88
2021/12/12 07:15:27;;;;;;;14.80;7.12;;;;;;;2.10;61.68;100078.31;4380484;32;33125;-89
2021/12/12 07:17:58;;;;;;;11.12;6.05;;;;;;;2.23;61.45;100079.97;4360524;32;33359;-89
2021/12/12 07:20:27;;;;;;;11.07;5.32;;;;;;;2.28;61.88;100059.97;4379867;32;33798;-90
2021/12/12 07:22:54;;;;;;;13.85;6.20;;;;;;;1.92;62.19;100065.34;4367898;32;33712;-87
2021/12/12 07:25:23;;;;;;;15.13;6.03;;;;;;;1.71;63.09;100066.28;4366360;32;34118;-88
2021/12/12 07:27:51;;;;;;;11.52;5.85;;;;;;;2.00;62.63;100068.81;4362617;32;33788;-86
2021/12/12 07:30:20;;;;;;;11.73;5.68;;;;;;;2.26;61.24;100061.69;4366988;32;34642;-87
2021/12/12 07:32:48;;;;;;;11.68;6.75;;;;;;;2.38;60.91;100065.13;4379803;32;33832;-87
2021/12/12 07:35:16;;;;;;;12.85;6.30;;;;;;;2.37;60.87;100063.38;4379327;32;32717;-87
2021/12/12 07:37:45;;;;;;;11.15;5.47;;;;;;;2.49;59.85;100063.31;4366982;32;32465;-87
2021/12/12 07:40:17;;;;;;;10.65;6.30;;;;;;;2.22;61.00;100062.59;4368030;32;32894;-87
2021/12/12 07:42:46;;;;;;;14.98;5.82;;;;;;;2.36;60.42;100051.22;4374187;32;32661;-87
2021/12/12 07:45:15;;;;;;;14.25;5.30;;;;;;;1.97;62.02;100059.25;4361865;32;33468;-86
2021/12/12 07:47:43;;;;;;;11.38;6.10;;;;;;;2.07;61.49;100064.41;4366924;32;33683;-87
2021/12/12 07:50:13;;;;;;;11.82;5.10;;;;;;;2.33;60.77;100061.66;4378768;32;33996;-87
2021/12/12 07:52:41;;;;;;;12.48;5.05;;;;;;;2.34;60.35;100068.63;4379802;32;32665;-87
2021/12/12 07:55:09;;;;;;;12.63;6.10;;;;;;;2.33;60.79;100072.06;4355201;32;32435;-87
2021/12/12 07:57:37;;;;;;;11.75;5.72;;;;;;;2.14;61.14;100069.59;4366842;32;33233;-86
2021/12/12 08:00:12;;;;;;;13.45;5.97;;;;;;;2.39;60.34;100075.53;4367203;32;33311;-87
2021/12/12 08:02:41;;;;;;;14.43;5.75;;;;;;;2.01;61.91;100086.16;4367185;32;33330;-86
2021/12/12 08:05:12;;;;;;;12.60;5.97;;;;;;;2.35;60.56;100067.75;4355913;32;32932;-86
2021/12/12 08:07:40;;;;;;;14.80;6.32;;;;;;;2.34;60.42;100066.88;4358958;32;32887;-86
2021/12/12 08:10:12;;;;;;;14.70;5.55;;;;;;;2.49;60.60;100068.53;4354765;32;33027;-87
2021/12/12 08:12:42;;;;;;;12.07;5.07;;;;;;;2.49;60.47;100071.13;4367342;32;32877;-88
2021/12/12 08:15:16;;;;;;;12.18;5.07;;;;;;;2.67;59.14;100073.59;4366518;32;32641;-86
2021/12/12 08:17:43;;;;;;;12.43;5.35;;;;;;;2.49;60.28;100084.16;4364861;32;33670;-86
2021/12/12 08:20:13;;;;;;;9.63;4.82;;;;;;;2.22;61.04;100080.81;4366181;32;33799;-86
2021/12/12 08:22:42;;;;;;;12.55;5.78;;;;;;;2.47;60.50;100097.22;4379285;32;32098;-86
2021/12/12 08:25:12;;;;;;;13.52;5.70;;;;;;;2.58;59.42;100089.31;4366566;32;32369;-86
2021/12/12 08:27:40;;;;;;;11.30;4.57;;;;;;;2.53;60.19;100085.88;4365949;32;33485;-86
2021/12/12 08:30:10;;;;;;;10.25;5.50;;;;;;;2.53;60.20;100094.56;4363069;32;33739;-86
2021/12/12 08:32:38;;;;;;;9.00;4.85;;;;;;;2.90;59.40;100091.69;4366342;32;32806;-86
2021/12/12 08:35:11;;;;;;;11.65;5.85;;;;;;;2.98;59.33;100096.81;4364730;32;32403;-86
2021/12/12 08:37:40;;;;;;;11.88;4.80;;;;;;;3.08;58.19;100096.72;4365895;32;32325;-87
2021/12/12 08:40:14;;;;;;;13.43;6.03;;;;;;;3.12;58.13;100087.13;4361839;32;34014;-86
2021/12/12 08:42:41;;;;;;;13.60;5.75;;;;;;;3.24;58.10;100094.87;4373473;32;32315;-86
2021/12/12 08:45:13;;;;;;;10.15;4.97;;;;;;;3.61;56.68;100091.91;4363913;32;33261;-87
2021/12/12 08:47:41;;;;;;;10.73;5.32;;;;;;;3.68;56.55;100096.16;4362114;32;34097;-87
2021/12/12 08:50:12;;;;;;;9.73;5.32;;;;;;;3.58;56.85;100090.19;4366409;32;33609;-86
2021/12/12 08:52:43;;;;;;;9.02;5.25;;;;;;;3.29;58.01;100090.47;4366159;32;33940;-87
2021/12/12 08:55:19;;;;;;;10.85;5.03;;;;;;;3.69;56.31;100084.81;4379410;32;32660;-87
2021/12/12 08:57:58;;;;;;;14.93;5.93;;;;;;;3.77;55.85;100093.44;4364205;32;33739;-87
2021/12/12 09:00:37;;;;;;;8.65;5.30;;;;;;;4.02;55.40;100087.94;4367683;32;32953;-86
2021/12/12 09:03:07;;;;;;;10.70;5.40;;;;;;;3.94;55.27;100092.38;4365443;32;32975;-86
2021/12/12 09:05:37;;;;;;;10.52;5.68;;;;;;;4.24;54.29;100084.16;4378576;32;33215;-86
2021/12/12 09:08:31;;;;;;;9.13;4.65;;;;;;;4.04;55.35;100086.19;4364076;32;32962;-86
2021/12/12 09:11:09;;;;;;;7.85;4.40;;;;;;;4.03;55.30;100090.50;4365042;32;33164;-86
2021/12/12 09:13:48;;;;;;;10.35;5.85;;;;;;;4.16;54.73;100083.38;4361883;32;33322;-87
2021/12/12 09:16:26;;;;;;;7.85;4.32;;;;;;;3.82;55.96;100090.78;4377203;32;33004;-86
2021/12/12 09:19:00;;;;;;;14.23;5.90;;;;;;;3.98;55.74;100081.00;4366112;32;34252;-87
2021/12/12 09:21:36;;;;;;;13.90;5.72;;;;;;;4.42;54.11;100076.97;4365733;32;33421;-86
2021/12/12 09:24:10;;;;;;;8.68;4.43;;;;;;;4.25;54.66;100080.66;4378797;32;33130;-87
2021/12/12 09:26:43;;;;;;;11.35;5.00;;;;;;;3.76;56.17;100078.66;4365710;32;34073;-86
2021/12/12 09:29:25;;;;;;;11.32;5.40;;;;;;;4.21;54.93;100076.34;4378641;32;34441;-86
2021/12/12 09:32:00;;;;;;;8.32;4.97;;;;;;;4.52;53.85;100073.31;4365907;32;33485;-86
2021/12/12 09:34:36;;;;;;;8.73;4.47;;;;;;;4.50;54.08;100070.72;4365883;32;33959;-86
2021/12/12 09:37:21;;;;;;;10.70;5.53;;;;;;;4.59;53.75;100069.72;4364703;32;32605;-86
2021/12/12 09:40:03;;;;;;;9.88;4.97;;;;;;;4.54;54.01;100072.41;4377115;32;33936;-86
2021/12/12 09:42:58;;;;;;;7.72;4.15;;;;;;;4.73;53.61;100070.38;4378055;32;34237;-86
2021/12/12 09:45:27;;;;;;;8.85;4.10;;;;;;;4.74;54.61;100063.38;4361930;32;33380;-86
2021/12/12 09:51:16;;;;;;;9.13;4.70;;;;;;;5.03;53.68;100062.91;4373328;32;34546;-86
2021/12/12 09:54:19;;;;;;;8.70;4.40;;;;;;;5.05;53.24;100058.53;4367504;32;33356;-87
2021/12/12 09:56:59;;;;;;;10.38;4.40;;;;;;;4.94;53.59;100066.56;4367431;32;33624;-86
2021/12/12 09:59:58;;;;;;;6.35;3.30;;;;;;;5.16;53.64;100064.41;4363986;32;33298;-86
2021/12/12 10:02:48;;;;;;;6.25;3.60;;;;;;;5.09;52.89;100054.97;4378219;32;33073;-86
2021/12/12 10:05:30;;;;;;;8.95;4.70;;;;;;;5.17;53.03;100065.28;4367619;32;32581;-86
2021/12/12 10:07:59;;;;;;;7.90;3.78;;;;;;;5.05;52.86;100075.09;4366983;32;32929;-86
2021/12/12 10:10:35;;;;;;;8.20;4.93;;;;;;;4.59;54.57;100080.19;4376603;32;31577;-86
2021/12/12 10:13:13;;;;;;;9.98;4.95;;;;;;;4.83;53.61;100073.69;4366947;32;33208;-87
2021/12/12 10:15:45;;;;;;;8.27;4.75;;;;;;;4.99;53.56;100069.97;4367572;32;33671;-86
2021/12/12 10:18:35;;;;;;;8.93;5.30;;;;;;;4.95;54.01;100067.41;4366581;32;32861;-86
2021/12/12 10:21:16;;;;;;;7.05;3.65;;;;;;;5.35;52.11;100068.44;4364120;32;32903;-86
2021/12/12 10:23:53;;;;;;;8.30;3.90;;;;;;;5.11;52.84;100074.13;4378481;32;32405;-86
2021/12/12 10:26:26;;;;;;;7.55;4.07;;;;;;;5.09;53.20;100070.66;4379529;32;34736;-86
2021/12/12 10:29:00;;;;;;;7.12;3.50;;;;;;;5.49;52.33;100067.34;4378200;32;33578;-86
2021/12/12 10:32:03;;;;;;;8.18;4.53;;;;;;;5.45;51.35;100068.28;4365624;32;33483;-85
2021/12/12 10:34:49;;;;;;;11.68;3.80;;;;;;;5.34;51.93;100071.09;4389073;32;33889;-86
2021/12/12 10:37:28;;;;;;;6.20;3.62;;;;;;;5.17;53.54;100074.00;4366514;32;32769;-86
2021/12/12 10:40:03;;;;;;;6.43;3.72;;;;;;;5.11;53.20;100068.88;4378829;32;32816;-86
2021/12/12 10:42:35;;;;;;;5.07;3.12;;;;;;;5.34;51.60;100086.81;4366636;32;33471;-92
2021/12/12 10:45:07;;;;;;;6.03;3.47;;;;;;;5.36;52.05;100064.06;4378937;32;32745;-88
2021/12/12 10:47:52;;;;;;;9.93;3.95;;;;;;;5.28;51.99;100072.06;4365064;32;33459;-89
2021/12/12 10:50:31;;;;;;;11.35;4.35;;;;;;;5.18;52.70;100056.56;4365309;32;33305;-88
2021/12/12 10:53:05;;;;;;;6.85;3.80;;;;;;;5.61;52.01;100069.72;4377554;32;32606;-88
2021/12/12 10:55:38;;;;;;;14.32;4.43;;;;;;;5.82;52.41;100064.06;4366182;32;33546;-90
2021/12/12 10:58:25;;;;;;;7.25;3.60;;;;;;;6.01;50.50;100071.56;4365035;32;34045;-90
2021/12/12 11:01:07;;;;;;;5.82;3.25;;;;;;;6.12;50.22;100066.97;4366282;32;33037;-91
2021/12/12 11:03:42;;;;;;;7.75;3.80;;;;;;;5.90;51.88;100062.16;4365718;32;32597;-91
2021/12/12 11:06:27;;;;;;;6.57;3.90;;;;;;;5.96;51.43;100065.56;4366254;32;34042;-90
2021/12/12 11:08:57;;;;;;;6.50;3.08;;;;;;;6.12;50.22;100064.34;4366466;32;34387;-90
2021/12/12 11:11:30;;;;;;;7.60;3.30;;;;;;;6.00;51.60;100067.25;4378514;32;33896;-91
2021/12/12 11:14:21;;;;;;;7.68;3.92;;;;;;;6.13;50.49;100066.94;4375395;32;33402;-90
2021/12/12 11:17:19;;;;;;;6.90;3.05;;;;;;;6.22;50.72;100055.41;4367264;32;32800;-91
2021/12/12 11:20:16;;;;;;;10.82;3.33;;;;;;;6.20;50.17;100059.81;4377943;32;33305;-89
2021/12/12 11:23:04;;;;;;;6.12;3.33;;;;;;;6.49;49.04;100053.03;4368597;32;34021;-89
2021/12/12 11:25:37;;;;;;;5.22;2.72;;;;;;;6.01;51.25;100061.09;4365273;32;32960;-89
2021/12/12 11:28:30;;;;;;;6.93;3.45;;;;;;;5.89;50.56;100059.56;4376274;32;32401;-90
2021/12/12 11:31:12;;;;;;;9.48;3.15;;;;;;;6.26;50.19;100046.53;4376421;32;33844;-91
2021/12/12 11:33:47;;;;;;;6.80;3.05;;;;;;;6.05;51.30;100055.75;4349362;32;34247;-89
2021/12/12 11:36:26;;;;;;;8.48;3.45;;;;;;;5.59;51.61;100061.03;4364409;32;33856;-89
2021/12/12 11:39:02;;;;;;;5.53;3.10;;;;;;;5.54;51.62;100055.88;4361450;32;32920;-90
2021/12/12 11:41:55;;;;;;;8.35;4.30;;;;;;;6.10;50.41;100048.66;4376812;32;33651;-89
2021/12/12 11:44:38;;;;;;;8.30;3.80;;;;;;;5.69;52.06;100049.47;4366815;32;32927;-91
2021/12/12 11:47:48;;;;;;;5.40;3.42;;;;;;;5.95;50.59;100040.25;4365021;32;32072;-90
2021/12/12 11:50:57;;;;;;;7.93;3.30;;;;;;;5.74;51.50;100033.66;4363894;32;32664;-89
2021/12/12 11:53:47;;;;;;;5.07;2.70;;;;;;;5.68;51.51;100039.88;4388469;32;34795;-90
2021/12/12 11:56:34;;;;;;;5.90;2.97;;;;;;;5.55;51.29;100048.88;4376182;32;34350;-90
2021/12/12 11:59:25;;;;;;;6.72;2.92;;;;;;;5.22;53.46;100046.00;4376651;32;32245;-90
2021/12/12 12:02:32;;;;;;;7.05;3.15;;;;;;;5.19;52.97;100055.66;4344812;32;32658;-90
2021/12/12 12:05:37;;;;;;;6.15;2.85;;;;;;;5.21;53.62;100057.34;4346920;32;33002;-89
2021/12/12 12:08:42;;;;;;;4.53;2.80;;;;;;;5.18;53.02;100065.28;4346994;32;33360;-90
2021/12/12 12:11:12;;;;;;;4.03;2.22;;;;;;;5.37;52.14;100058.81;4348298;32;32244;-89
2021/12/12 12:14:18;;;;;;;5.97;3.03;;;;;;;5.48;52.33;100068.22;4349003;32;32843;-91
2021/12/12 12:17:21;;;;;;;4.78;3.03;;;;;;;5.51;52.51;100055.09;4387866;32;32535;-88
2021/12/12 12:20:23;;;;;;;5.22;2.83;;;;;;;5.44;52.21;100056.06;4365311;32;32829;-91
2021/12/12 12:22:59;;;;;;;4.82;2.62;;;;;;;5.69;51.46;100057.31;4378673;32;32984;-90
2021/12/12 12:28:56;;;;;;;7.25;3.05;;;;;;;5.65;51.67;100058.31;4395030;32;33265;-89
2021/12/12 12:31:36;;;;;;;10.10;3.12;;;;;;;5.46;51.70;100060.41;4364030;32;32744;-90
2021/12/12 12:35:01;;;;;;;5.25;3.10;;;;;;;5.19;53.57;100060.91;4383788;32;31979;-90
2021/12/12 12:38:07;;;;;;;10.73;3.70;;;;;;;5.50;52.50;100061.19;4345392;32;32540;-91
2021/12/12 12:40:54;;;;;;;3.70;3.00;;;;;;;5.24;53.23;100059.06;4356629;32;33274;-90
2021/12/12 12:43:41;;;;;;;6.03;3.10;;;;;;;5.47;52.42;100069.12;4366041;32;32992;-89
2021/12/12 12:46:43;;;;;;;4.07;2.75;;;;;;;5.33;52.49;100054.53;4379081;32;33441;-90
2021/12/12 12:49:50;;;;;;;10.27;3.75;;;;;;;5.24;52.97;100064.31;4378927;32;34019;-90
2021/12/12 12:52:53;;;;;;;4.22;2.72;;;;;;;4.83;54.23;100077.19;4386225;32;32760;-89
2021/12/12 12:55:54;;;;;;;6.55;3.95;;;;;;;4.98;53.76;100069.97;4392758;32;33799;-90
2021/12/12 12:58:38;;;;;;;7.22;4.15;;;;;;;5.01;53.70;100069.94;4379248;32;33870;-89
2021/12/12 13:01:15;;;;;;;9.50;4.05;;;;;;;5.00;53.98;100076.06;4392701;32;33604;-90
2021/12/12 13:03:52;;;;;;;6.18;3.62;;;;;;;4.91;54.81;100086.66;4393221;32;33718;-89
2021/12/12 13:06:48;;;;;;;7.35;3.55;;;;;;;5.08;53.48;100075.03;4386449;32;33105;-89
2021/12/12 13:09:28;;;;;;;4.90;3.45;;;;;;;4.84;54.19;100084.16;4386040;32;32929;-90
2021/12/12 13:12:23;;;;;;;6.80;2.62;;;;;;;4.83;54.38;100085.03;4378771;32;33049;-90
2021/12/12 13:14:52;;;;;;;6.82;3.70;;;;;;;4.37;55.94;100087.47;4392036;32;33548;-90
2021/12/12 13:17:43;;;;;;;10.68;4.40;;;;;;;4.71;55.21;100094.84;4382065;32;32650;-90
2021/12/12 13:20:40;;;;;;;5.05;3.47;;;;;;;4.71;55.13;100097.44;4390420;32;31890;-90
2021/12/12 13:23:38;;;;;;;11.12;3.60;;;;;;;4.87;54.71;100093.69;4390268;32;33085;-90
2021/12/12 13:26:27;;;;;;;8.80;3.80;;;;;;;4.82;54.70;100095.53;4393611;32;32952;-89